Time;durP1;ratioP1;P1;durP2;ratioP2;P2;SDS_P1;SDS_P2;PMS_P1;PMS_P2;Temp;Humidity;BMP_temperature;BMP_pressure;BME280_temperature;BME280_humidity;BME280_pressure;Samples;Min_cycle;Max_cycle;Signal;HPM_P1;HPM_P2
2022/06/09 00:01:26;;;;;;;10.90;9.52;;;;;;;23.21;58.04;98696.00;4445789;32;34078;-63
2022/06/09 00:03:56;;;;;;;10.82;9.32;;;;;;;23.17;57.87;98697.50;4452988;32;35030;-62
2022/06/09 00:06:32;;;;;;;10.80;9.52;;;;;;;23.15;57.76;98691.44;4445634;32;34916;-61
2022/06/09 00:09:02;;;;;;;11.80;9.77;;;;;;;23.00;58.03;98691.75;4447708;32;33866;-62
2022/06/09 00:11:32;;;;;;;10.93;9.70;;;;;;;22.99;57.81;98692.81;4444122;32;35486;-61
2022/06/09 00:13:59;;;;;;;11.32;10.07;;;;;;;22.96;57.79;98698.72;4445692;32;33736;-62
2022/06/09 00:16:28;;;;;;;13.02;10.68;;;;;;;22.84;58.75;98701.25;4446467;32;33646;-62
2022/06/09 00:18:55;;;;;;;13.02;10.82;;;;;;;22.99;58.23;98715.47;4446613;32;35102;-61
2022/06/09 00:21:23;;;;;;;12.55;10.40;;;;;;;22.97;58.46;98703.09;4445871;32;32264;-60
2022/06/09 00:23:50;;;;;;;13.85;11.50;;;;;;;23.06;58.61;98703.69;4445335;32;33458;-60
2022/06/09 00:26:18;;;;;;;16.70;11.12;;;;;;;23.01;58.31;98701.59;4444884;32;34176;-62
2022/06/09 00:28:46;;;;;;;14.57;11.70;;;;;;;23.05;58.08;98699.25;4443074;32;35276;-62
2022/06/09 00:31:13;;;;;;;13.85;12.07;;;;;;;23.00;58.21;98703.50;4445410;32;33776;-61
2022/06/09 00:33:41;;;;;;;15.02;12.43;;;;;;;23.04;57.97;98698.44;4449649;32;33821;-61
2022/06/09 00:36:09;;;;;;;15.30;13.20;;;;;;;23.02;58.10;98686.91;4445301;32;34621;-63
2022/06/09 00:38:37;;;;;;;15.57;12.55;;;;;;;22.97;58.20;98689.47;4445972;32;33886;-61
2022/06/09 00:41:05;;;;;;;14.85;12.57;;;;;;;23.00;58.05;98695.31;4444678;32;34010;-60
2022/06/09 00:43:33;;;;;;;14.70;12.32;;;;;;;22.99;58.14;98693.66;4445211;32;33331;-61
2022/06/09 00:46:10;;;;;;;14.32;12.82;;;;;;;22.85;58.83;98691.19;4447349;32;34152;-61
2022/06/09 00:48:38;;;;;;;16.40;12.70;;;;;;;22.90;58.61;98686.75;4444471;32;34040;-62
2022/06/09 00:51:17;;;;;;;15.05;12.65;;;;;;;22.99;58.08;98688.19;4448167;32;34979;-62
2022/06/09 00:53:45;;;;;;;15.38;12.48;;;;;;;23.04;58.05;98692.13;4443631;32;33095;-62
2022/06/09 00:56:14;;;;;;;16.00;13.20;;;;;;;23.02;58.05;98692.38;4446221;32;33630;-62
2022/06/09 00:58:44;;;;;;;16.10;13.50;;;;;;;22.96;58.43;98701.44;4448640;32;33936;-62
2022/06/09 01:01:15;;;;;;;15.52;13.65;;;;;;;22.87;58.70;98695.38;4440285;32;33291;-62
2022/06/09 01:03:48;;;;;;;16.60;14.02;;;;;;;22.90;58.62;98689.47;4441050;32;33451;-62
2022/06/09 01:06:22;;;;;;;14.48;12.93;;;;;;;22.92;58.76;98697.44;4441550;32;33947;-62
2022/06/09 01:09:00;;;;;;;14.98;12.98;;;;;;;22.97;58.89;98698.47;4439994;32;34057;-62
2022/06/09 01:11:28;;;;;;;13.73;12.27;;;;;;;22.87;59.57;98694.53;4442807;32;34711;-62
2022/06/09 01:13:57;;;;;;;15.52;13.07;;;;;;;22.92;59.27;98698.28;4447393;32;33228;-62
2022/06/09 01:16:30;;;;;;;15.25;13.65;;;;;;;22.68;60.07;98682.69;4442980;32;32811;-62
2022/06/09 01:19:24;;;;;;;14.80;13.20;;;;;;;22.82;59.84;98689.72;4445117;32;34075;-62
2022/06/09 01:21:57;;;;;;;13.48;12.07;;;;;;;23.05;59.05;98693.81;4445401;32;32271;-62
2022/06/09 01:24:36;;;;;;;16.58;13.38;;;;;;;22.99;58.91;98681.91;4445823;32;34711;-61
2022/06/09 01:27:09;;;;;;;15.40;12.90;;;;;;;23.09;58.37;98687.69;4448514;32;34628;-61
2022/06/09 01:29:43;;;;;;;15.93;13.62;;;;;;;23.14;58.25;98684.28;4443795;32;34066;-61
2022/06/09 01:32:20;;;;;;;17.65;14.38;;;;;;;23.12;58.29;98672.78;4443039;32;33068;-62
2022/06/09 01:35:10;;;;;;;14.00;12.15;;;;;;;23.01;58.67;98666.97;4442701;32;34600;-62
2022/06/09 01:37:44;;;;;;;14.40;12.07;;;;;;;22.91;59.51;98666.59;4443921;32;33627;-63
2022/06/09 01:40:15;;;;;;;16.77;13.80;;;;;;;23.01;59.24;98675.13;4443644;32;34427;-62
2022/06/09 01:42:46;;;;;;;16.90;14.52;;;;;;;23.03;58.91;98664.03;4440433;32;33577;-64
2022/06/09 01:45:48;;;;;;;15.30;13.32;;;;;;;22.60;60.42;98664.69;4444880;32;34528;-63
2022/06/09 01:48:17;;;;;;;14.55;13.02;;;;;;;22.80;59.73;98664.56;4444130;32;33738;-62
2022/06/09 01:50:50;;;;;;;14.20;12.70;;;;;;;22.93;59.44;98671.84;4442315;32;34037;-63
2022/06/09 01:53:22;;;;;;;14.63;13.10;;;;;;;22.96;59.30;98676.88;4431675;32;33879;-62
2022/06/09 01:55:55;;;;;;;16.65;13.30;;;;;;;23.10;59.07;98673.00;4452107;32;34795;-62
2022/06/09 01:58:26;;;;;;;16.05;12.95;;;;;;;23.10;58.74;98678.44;4444952;32;32438;-62
2022/06/09 02:00:57;;;;;;;16.42;14.13;;;;;;;22.98;58.85;98672.03;4442080;32;34530;-62
2022/06/09 02:03:31;;;;;;;15.93;13.45;;;;;;;22.95;58.83;98665.13;4438828;32;34083;-61
2022/06/09 02:05:59;;;;;;;15.20;13.02;;;;;;;22.94;58.43;98662.63;4436373;32;33359;-62
2022/06/09 02:08:29;;;;;;;17.80;13.60;;;;;;;23.04;57.95;98668.41;4440437;32;33344;-61
2022/06/09 02:10:59;;;;;;;16.12;13.80;;;;;;;22.99;58.07;98674.53;4440971;32;31858;-61
2022/06/09 02:13:29;;;;;;;17.25;14.48;;;;;;;22.92;58.44;98675.59;4440331;32;33497;-61
2022/06/09 02:16:06;;;;;;;15.27;12.25;;;;;;;22.98;58.34;98681.03;4439539;32;34389;-61
2022/06/09 02:18:39;;;;;;;17.33;14.05;;;;;;;22.96;58.55;98677.72;4443418;32;33923;-61
2022/06/09 02:21:35;;;;;;;15.77;13.38;;;;;;;23.06;58.28;98671.78;4439048;32;32320;-62
2022/06/09 02:24:03;;;;;;;16.60;12.93;;;;;;;23.04;58.18;98667.59;4440800;32;33608;-62
2022/06/09 02:26:31;;;;;;;14.05;11.85;;;;;;;22.97;58.40;98668.47;4444329;32;32777;-61
2022/06/09 02:28:59;;;;;;;14.68;12.35;;;;;;;22.99;58.48;98671.81;4447245;32;32694;-61
2022/06/09 02:31:27;;;;;;;16.05;12.88;;;;;;;22.90;59.28;98677.72;4446256;32;33543;-62
2022/06/09 02:33:55;;;;;;;15.18;12.45;;;;;;;23.03;58.93;98674.94;4447342;32;34364;-62
2022/06/09 02:36:23;;;;;;;15.18;13.00;;;;;;;22.99;59.10;98679.19;4444200;32;33206;-61
2022/06/09 02:38:50;;;;;;;17.45;12.55;;;;;;;23.09;59.04;98682.25;4446769;32;35024;-61
2022/06/09 02:41:18;;;;;;;14.10;11.98;;;;;;;22.76;60.08;98672.38;4442750;32;32809;-61
2022/06/09 02:43:46;;;;;;;15.18;12.80;;;;;;;22.99;59.34;98676.44;4435519;32;33714;-61
2022/06/09 02:46:13;;;;;;;15.88;13.43;;;;;;;23.10;59.01;98675.72;4433146;32;33532;-62
2022/06/09 02:48:41;;;;;;;16.90;13.13;;;;;;;23.16;58.49;98677.56;4434485;32;34697;-61
2022/06/09 02:51:18;;;;;;;15.55;13.25;;;;;;;23.14;58.52;98678.84;4436694;32;33950;-61
2022/06/09 02:53:45;;;;;;;13.93;12.43;;;;;;;22.90;59.69;98677.72;4436738;32;33503;-61
2022/06/09 02:56:13;;;;;;;15.77;12.98;;;;;;;22.92;59.72;98681.06;4436593;32;33491;-61
2022/06/09 02:58:41;;;;;;;17.70;13.25;;;;;;;22.99;59.27;98682.72;4438764;32;34422;-61
2022/06/09 03:01:09;;;;;;;15.60;13.77;;;;;;;23.03;59.18;98688.59;4438450;32;33753;-62
2022/06/09 03:03:37;;;;;;;15.88;13.40;;;;;;;23.08;58.91;98685.19;4438196;32;34755;-61
2022/06/09 03:06:05;;;;;;;16.33;13.32;;;;;;;23.01;58.93;98675.13;4440442;32;33361;-62
2022/06/09 03:08:33;;;;;;;16.37;13.57;;;;;;;23.13;58.91;98677.19;4442293;32;33775;-62
2022/06/09 03:11:01;;;;;;;17.90;14.07;;;;;;;22.90;59.46;98684.00;4442782;32;34668;-64
2022/06/09 03:13:28;;;;;;;17.87;14.07;;;;;;;23.02;59.39;98681.47;4439675;32;33366;-62
2022/06/09 03:15:56;;;;;;;16.98;14.52;;;;;;;22.98;59.24;98681.03;4436085;32;31771;-62
2022/06/09 03:18:24;;;;;;;19.83;14.57;;;;;;;23.00;59.12;98689.03;4445122;32;34686;-63
2022/06/09 03:20:51;;;;;;;20.05;14.35;;;;;;;22.93;59.45;98680.03;4439972;32;33675;-60
2022/06/09 03:23:19;;;;;;;19.20;13.52;;;;;;;23.08;59.24;98683.31;4444606;32;33711;-62
2022/06/09 03:25:48;;;;;;;17.33;15.07;;;;;;;23.01;59.86;98682.50;4444181;32;33319;-61
2022/06/09 03:28:15;;;;;;;21.77;15.13;;;;;;;22.88;60.77;98688.84;4435082;32;33887;-61
2022/06/09 03:30:44;;;;;;;21.90;15.57;;;;;;;23.05;60.24;98682.87;4444745;32;33682;-60
2022/06/09 03:33:11;;;;;;;21.12;16.52;;;;;;;23.09;60.30;98684.97;4439383;32;34900;-61
2022/06/09 03:35:39;;;;;;;23.05;16.80;;;;;;;23.11;60.33;98679.28;4441375;32;33864;-63
2022/06/09 03:38:07;;;;;;;25.35;18.83;;;;;;;23.20;60.10;98683.41;4442808;32;35154;-62
2022/06/09 03:40:34;;;;;;;25.23;17.30;;;;;;;22.90;61.59;98683.19;4439546;32;35560;-60
2022/06/09 03:43:02;;;;;;;24.12;18.33;;;;;;;22.96;61.74;98680.44;4446365;32;35127;-61
2022/06/09 03:45:32;;;;;;;26.83;18.95;;;;;;;23.15;61.27;98681.34;4438889;32;33276;-63
2022/06/09 03:48:00;;;;;;;29.17;20.25;;;;;;;23.19;61.32;98673.56;4437093;32;33952;-60
2022/06/09 03:50:29;;;;;;;29.67;19.42;;;;;;;23.32;61.03;98680.81;4441557;32;34401;-62
2022/06/09 03:52:57;;;;;;;28.27;20.40;;;;;;;23.14;61.82;98682.41;4436963;32;34339;-64
2022/06/09 03:55:25;;;;;;;27.40;19.12;;;;;;;23.29;61.58;98673.88;4440107;32;32230;-63
2022/06/09 03:57:52;;;;;;;29.75;20.23;;;;;;;23.34;61.64;98676.81;4439128;32;33920;-62
2022/06/09 04:00:23;;;;;;;29.85;21.05;;;;;;;23.48;61.22;98681.06;4436573;32;35162;-65
2022/06/09 04:02:51;;;;;;;29.05;20.58;;;;;;;23.33;61.94;98674.28;4437624;32;34998;-65
2022/06/09 04:05:19;;;;;;;31.00;21.70;;;;;;;23.47;61.63;98673.13;4436813;32;35452;-61
2022/06/09 04:07:47;;;;;;;28.92;20.08;;;;;;;23.43;62.28;98686.34;4441384;32;34770;-61
2022/06/09 04:10:20;;;;;;;27.70;20.42;;;;;;;23.31;62.68;98688.16;4439020;32;33832;-63
2022/06/09 04:12:48;;;;;;;27.77;18.80;;;;;;;23.21;62.26;98674.16;4437257;32;34023;-62
2022/06/09 04:15:16;;;;;;;27.75;17.87;;;;;;;23.38;61.64;98671.72;4440335;32;33880;-62
2022/06/09 04:17:45;;;;;;;27.50;19.83;;;;;;;23.30;62.05;98672.00;4443485;32;33984;-63
2022/06/09 04:20:16;;;;;;;28.87;20.70;;;;;;;23.59;61.16;98676.75;4434850;32;34997;-63
2022/06/09 04:22:43;;;;;;;29.52;20.15;;;;;;;23.80;60.24;98674.72;4445399;32;34019;-62
2022/06/09 04:25:19;;;;;;;30.00;21.08;;;;;;;23.85;60.30;98663.91;4434515;32;33379;-63
2022/06/09 04:27:47;;;;;;;29.15;21.98;;;;;;;23.85;60.34;98672.97;4439275;32;33605;-63
2022/06/09 04:30:15;;;;;;;30.15;21.70;;;;;;;23.93;59.82;98678.12;4434106;32;33782;-62
2022/06/09 04:32:52;;;;;;;30.58;20.95;;;;;;;23.91;60.02;98680.25;4440424;32;34444;-62
2022/06/09 04:35:19;;;;;;;31.27;22.52;;;;;;;23.64;61.09;98687.84;4441256;32;34233;-63
2022/06/09 04:38:02;;;;;;;30.73;22.67;;;;;;;23.59;61.21;98686.84;4438380;32;37446;-63
2022/06/09 04:40:37;;;;;;;33.17;24.30;;;;;;;23.88;60.69;98688.06;4436270;32;32389;-61
2022/06/09 04:43:07;;;;;;;31.15;22.40;;;;;;;23.94;60.81;98696.19;4438949;32;33181;-63
2022/06/09 04:45:36;;;;;;;30.10;21.95;;;;;;;24.07;60.54;98697.94;4447177;32;33090;-62
2022/06/09 04:48:04;;;;;;;31.85;22.87;;;;;;;23.88;61.23;98696.25;4437146;32;34981;-63
2022/06/09 04:50:32;;;;;;;30.00;22.95;;;;;;;24.00;60.78;98710.03;4443128;32;32683;-63
2022/06/09 04:53:00;;;;;;;29.73;21.50;;;;;;;24.14;60.07;98708.81;4441851;32;33987;-61
2022/06/09 04:55:28;;;;;;;31.02;23.08;;;;;;;24.36;59.46;98710.00;4435840;32;33757;-64
2022/06/09 04:57:55;;;;;;;28.73;22.67;;;;;;;24.46;59.40;98705.94;4437012;32;34351;-73
2022/06/09 05:00:23;;;;;;;26.17;19.05;;;;;;;24.36;60.15;98706.44;4434922;32;34204;-63
2022/06/09 05:02:51;;;;;;;24.75;19.45;;;;;;;24.32;59.65;98707.97;4438045;32;31798;-61
2022/06/09 05:05:22;;;;;;;26.20;18.87;;;;;;;24.33;59.27;98709.62;4437662;32;33589;-62
2022/06/09 05:07:50;;;;;;;24.60;18.65;;;;;;;24.38;59.29;98702.41;4445359;32;33835;-64
2022/06/09 05:10:18;;;;;;;26.00;19.37;;;;;;;24.10;59.42;98713.87;4441711;32;33970;-63
2022/06/09 05:12:45;;;;;;;23.15;19.42;;;;;;;23.93;60.43;98715.56;4439602;32;32032;-62
2022/06/09 05:15:16;;;;;;;24.20;19.23;;;;;;;23.96;60.19;98706.91;4435654;32;33538;-62
2022/06/09 05:17:44;;;;;;;26.62;20.52;;;;;;;24.22;59.87;98711.25;4445004;32;33612;-63
2022/06/09 05:20:14;;;;;;;23.35;18.05;;;;;;;24.34;59.85;98708.59;4434067;32;32744;-61
2022/06/09 05:22:42;;;;;;;26.60;19.58;;;;;;;24.42;59.87;98712.94;4443992;32;32357;-64
2022/06/09 05:25:10;;;;;;;25.45;19.73;;;;;;;24.29;60.66;98713.91;4441090;32;33556;-62
2022/06/09 05:27:38;;;;;;;21.50;17.35;;;;;;;24.38;60.54;98712.53;4435610;32;32543;-64
2022/06/09 05:30:09;;;;;;;21.15;17.83;;;;;;;24.29;60.30;98717.47;4442092;32;32721;-62
2022/06/09 05:32:37;;;;;;;19.10;16.20;;;;;;;24.46;60.02;98725.91;4437210;32;34039;-64
2022/06/09 05:35:06;;;;;;;20.75;15.43;;;;;;;24.47;60.37;98726.78;4437512;32;33155;-61
2022/06/09 05:45:56;;;;;;;13.48;12.00;;;;;;;24.08;59.21;98734.34;4447128;32;34521;-62
2022/06/09 05:48:25;;;;;;;13.35;11.95;;;;;;;24.29;59.55;98736.59;4445670;32;33658;-63
2022/06/09 05:50:52;;;;;;;18.05;12.27;;;;;;;24.22;60.31;98729.56;4447831;32;33949;-62
2022/06/09 05:53:20;;;;;;;16.87;13.90;;;;;;;24.24;59.03;98741.06;4439055;32;34180;-63
2022/06/09 05:55:48;;;;;;;15.75;13.82;;;;;;;24.00;59.25;98738.19;4439951;32;33110;-61
2022/06/09 05:58:16;;;;;;;20.30;14.98;;;;;;;24.20;59.13;98743.44;4435987;32;33740;-64
2022/06/09 06:00:45;;;;;;;17.50;14.50;;;;;;;24.00;59.85;98735.44;4441593;32;34017;-61
2022/06/09 06:03:14;;;;;;;16.15;14.30;;;;;;;24.08;60.65;98735.16;4444364;32;34112;-63
2022/06/09 06:08:29;;;;;;;22.35;15.15;;;;;;;23.59;60.36;98739.56;4446101;32;33172;-62
2022/06/09 06:10:56;;;;;;;19.65;16.58;;;;;;;23.73;61.10;98740.34;4442863;32;34748;-63
2022/06/09 06:13:25;;;;;;;20.48;17.73;;;;;;;24.21;59.91;98745.13;4445887;32;32748;-60
2022/06/09 06:15:52;;;;;;;20.27;16.98;;;;;;;23.91;59.51;98751.28;4440739;32;33261;-63
2022/06/09 06:18:30;;;;;;;21.00;17.73;;;;;;;23.93;59.77;98748.34;4435795;32;33810;-64
2022/06/09 06:20:58;;;;;;;25.00;20.40;;;;;;;23.73;60.46;98747.72;4441100;32;34048;-64
2022/06/09 06:23:27;;;;;;;24.33;18.92;;;;;;;23.96;60.15;98758.84;4443530;32;33546;-62
2022/06/09 06:25:55;;;;;;;23.25;17.90;;;;;;;24.13;60.11;98753.59;4439162;32;33261;-61
2022/06/09 06:28:24;;;;;;;22.50;19.35;;;;;;;24.18;59.00;98756.50;4438686;32;33581;-64
2022/06/09 06:30:57;;;;;;;25.33;18.37;;;;;;;23.88;58.60;98759.09;4443757;32;32259;-62
2022/06/09 06:33:25;;;;;;;27.45;20.55;;;;;;;24.09;59.35;98758.69;4441183;32;33385;-63
2022/06/09 06:35:53;;;;;;;33.03;22.50;;;;;;;23.97;59.12;98754.19;4444066;32;33520;-62
2022/06/09 06:38:21;;;;;;;31.98;25.00;;;;;;;23.94;58.93;98747.28;4437962;32;34619;-63
2022/06/09 06:40:49;;;;;;;32.95;23.67;;;;;;;24.06;58.73;98748.22;4446384;32;33914;-63
2022/06/09 06:43:17;;;;;;;31.05;24.17;;;;;;;24.07;58.91;98749.03;4444735;32;33690;-61
2022/06/09 06:45:44;;;;;;;27.27;21.55;;;;;;;24.04;58.85;98754.97;4447680;32;33377;-62
2022/06/09 06:48:12;;;;;;;28.77;20.62;;;;;;;24.04;59.11;98760.44;4443701;32;32689;-63
2022/06/09 06:50:40;;;;;;;21.27;17.37;;;;;;;23.88;59.47;98757.25;4438606;32;33931;-61
2022/06/09 06:53:12;;;;;;;24.35;18.23;;;;;;;23.95;59.87;98751.72;4446435;32;34201;-63
2022/06/09 06:55:40;;;;;;;21.30;16.27;;;;;;;23.96;60.17;98747.06;4453618;32;34604;-64
2022/06/09 06:58:08;;;;;;;22.62;18.02;;;;;;;24.17;60.07;98752.94;4447078;32;32695;-64
2022/06/09 07:00:36;;;;;;;22.42;15.60;;;;;;;24.23;60.36;98761.28;4448962;32;33900;-64
2022/06/09 07:03:05;;;;;;;17.90;13.10;;;;;;;24.20;60.81;98762.56;4437511;32;34705;-64
2022/06/09 07:05:58;;;;;;;16.08;12.85;;;;;;;24.21;60.12;98763.44;4449295;32;32991;-65
2022/06/09 07:08:25;;;;;;;12.88;10.27;;;;;;;24.08;61.43;98764.41;4441218;32;32195;-64
2022/06/09 07:10:53;;;;;;;12.32;8.85;;;;;;;24.11;60.58;98774.87;4445616;32;34171;-65
2022/06/09 07:13:21;;;;;;;12.30;8.88;;;;;;;23.98;60.25;98773.13;4439415;32;31197;-64
2022/06/09 07:15:49;;;;;;;11.32;8.52;;;;;;;23.94;59.95;98778.19;4443248;32;32155;-64
2022/06/09 07:18:17;;;;;;;12.23;8.75;;;;;;;23.86;60.04;98789.41;4436827;32;33709;-65
2022/06/09 07:20:44;;;;;;;9.73;7.85;;;;;;;23.61;61.32;98785.81;4439679;32;34180;-65
2022/06/09 07:23:12;;;;;;;12.15;9.27;;;;;;;23.76;60.94;98771.84;4439422;32;32894;-64
2022/06/09 07:25:40;;;;;;;14.15;9.30;;;;;;;23.39;62.05;98761.59;4435228;32;33513;-64
2022/06/09 07:28:07;;;;;;;11.57;9.25;;;;;;;23.58;61.83;98761.66;4436693;32;34725;-65
2022/06/09 07:30:35;;;;;;;14.95;9.77;;;;;;;23.55;62.44;98762.94;4436029;32;32573;-64
2022/06/09 07:33:03;;;;;;;12.60;9.63;;;;;;;23.46;62.85;98765.09;4436769;32;34659;-65
2022/06/09 07:35:32;;;;;;;14.18;9.73;;;;;;;;;;4438158;32;32951;-65
2022/06/09 07:38:01;;;;;;;13.38;8.38;;;;;;;23.18;63.96;98770.16;4439475;32;31053;-65
2022/06/09 07:40:28;;;;;;;14.20;9.13;;;;;;;23.38;63.11;98779.03;4444615;32;35287;-65
2022/06/09 07:42:56;;;;;;;12.88;9.15;;;;;;;23.58;62.76;98783.50;4448653;32;33755;-66
2022/06/09 07:45:24;;;;;;;13.30;9.50;;;;;;;23.80;62.66;98773.06;4450209;32;33391;-65
2022/06/09 07:47:51;;;;;;;12.37;7.97;;;;;;;23.65;64.24;98778.81;4446145;32;32548;-65
2022/06/09 07:50:19;;;;;;;14.00;8.18;;;;;;;23.81;63.78;98782.94;4440797;32;34945;-65
2022/06/09 07:52:47;;;;;;;11.12;7.85;;;;;;;23.85;64.10;98778.69;4444031;32;35304;-65
2022/06/09 07:55:16;;;;;;;13.82;8.02;;;;;;;23.43;63.83;98765.53;4440389;32;33422;-65
2022/06/09 07:57:44;;;;;;;10.80;6.95;;;;;;;23.59;63.91;98760.59;4443326;32;32593;-65
2022/06/09 08:00:13;;;;;;;8.85;6.70;;;;;;;23.77;64.32;98771.63;4445083;32;34122;-65
2022/06/09 08:02:43;;;;;;;8.80;5.35;;;;;;;23.87;64.89;98771.12;4442099;32;33521;-64
2022/06/09 08:05:14;;;;;;;9.13;4.85;;;;;;;24.24;62.62;98769.28;4438682;32;32344;-66
2022/06/09 08:07:48;;;;;;;7.57;4.57;;;;;;;24.14;62.04;98771.66;4439966;32;32653;-65
2022/06/09 08:10:20;;;;;;;7.65;5.22;;;;;;;24.28;61.38;98765.03;4439199;32;33712;-65
2022/06/09 08:12:52;;;;;;;6.85;5.25;;;;;;;24.64;60.10;98766.09;4445881;32;34214;-65
2022/06/09 08:15:20;;;;;;;7.97;5.68;;;;;;;24.62;60.15;98762.75;4445241;32;32973;-65
2022/06/09 08:17:47;;;;;;;8.60;5.82;;;;;;;24.13;58.40;98759.06;4445580;32;33768;-65
2022/06/09 08:20:15;;;;;;;8.48;5.87;;;;;;;24.17;59.08;98769.34;4444489;32;34890;-65
2022/06/09 08:23:01;;;;;;;;;;;;;;;24.53;58.50;98758.69;4443979;32;33817;-64
2022/06/09 08:25:29;;;;;;;8.82;6.40;;;;;;;24.45;58.45;98758.97;4443120;32;33136;-65
2022/06/09 08:27:57;;;;;;;8.25;5.57;;;;;;;23.88;60.48;98751.78;4441483;32;34950;-64
2022/06/09 08:30:25;;;;;;;8.25;5.15;;;;;;;24.13;60.39;98759.06;4436629;32;35386;-65
2022/06/09 08:32:52;;;;;;;7.82;5.35;;;;;;;24.25;60.36;98762.75;4442718;32;32347;-65
2022/06/09 08:35:20;;;;;;;7.10;5.00;;;;;;;24.24;59.93;98763.81;4438223;32;31876;-65
2022/06/09 08:37:50;;;;;;;8.02;5.30;;;;;;;24.11;59.13;98758.50;4443450;32;33655;-70
2022/06/09 08:40:22;;;;;;;6.78;5.18;;;;;;;24.13;59.47;98756.34;4441193;32;34945;-63
2022/06/09 08:43:16;;;;;;;7.62;4.97;;;;;;;23.97;58.71;98765.13;4446687;32;34388;-63
2022/06/09 08:45:45;;;;;;;5.75;3.90;;;;;;;24.20;59.79;98768.03;4440186;32;31711;-63
2022/06/09 08:48:22;;;;;;;8.63;5.65;;;;;;;24.17;59.38;98760.28;4444919;32;33979;-64
2022/06/09 08:51:03;;;;;;;7.80;5.40;;;;;;;23.65;60.63;98756.97;4438946;32;34957;-64
2022/06/09 08:53:37;;;;;;;7.90;5.55;;;;;;;23.66;60.39;98753.22;4438121;32;33308;-64
2022/06/09 08:56:11;;;;;;;7.25;4.75;;;;;;;23.46;61.73;98751.44;4436923;32;33429;-65
2022/06/09 08:58:42;;;;;;;10.30;4.80;;;;;;;23.00;60.69;98755.34;4438563;32;33601;-63
2022/06/09 09:01:10;;;;;;;7.25;4.90;;;;;;;23.37;59.34;98755.53;4447992;32;33925;-64
2022/06/09 09:03:47;;;;;;;10.13;6.50;;;;;;;23.65;59.92;98755.06;4440431;32;33849;-64
2022/06/09 09:06:37;;;;;;;8.43;5.70;;;;;;;23.85;59.03;98752.22;4444269;32;34589;-64
2022/06/09 09:09:15;;;;;;;8.43;5.97;;;;;;;23.90;59.64;98752.38;4435802;32;34681;-64
2022/06/09 09:11:52;;;;;;;8.02;5.35;;;;;;;23.98;59.22;98750.41;4442532;32;34034;-64
2022/06/09 09:14:30;;;;;;;9.18;6.85;;;;;;;23.79;59.36;98749.53;4448463;32;34532;-64
2022/06/09 09:17:36;;;;;;;9.52;5.68;;;;;;;23.54;60.48;98744.88;4449839;32;32174;-64
2022/06/09 09:20:24;;;;;;;7.97;5.68;;;;;;;24.06;60.24;98747.38;4439113;32;35464;-64
2022/06/09 09:23:08;;;;;;;8.63;5.20;;;;;;;23.98;59.22;98739.47;4435604;32;33239;-63
2022/06/09 09:25:58;;;;;;;8.93;5.57;;;;;;;24.00;58.27;98737.34;4445580;32;33603;-63
2022/06/09 09:28:32;;;;;;;7.90;4.85;;;;;;;24.35;57.86;98741.16;4439976;32;32234;-63
2022/06/09 09:31:20;;;;;;;9.18;4.65;;;;;;;24.51;55.45;98737.00;4439904;32;31701;-63
2022/06/09 09:33:49;;;;;;;7.57;4.25;;;;;;;24.24;56.90;98739.22;4444494;32;32757;-64
2022/06/09 09:36:29;;;;;;;8.23;5.53;;;;;;;24.42;57.71;98727.44;4449398;32;34063;-65
2022/06/09 09:39:03;;;;;;;6.70;4.47;;;;;;;24.60;56.55;98724.69;4442930;32;32338;-65
2022/06/09 09:41:34;;;;;;;7.15;4.12;;;;;;;24.85;56.57;98730.06;4439704;32;32765;-64
2022/06/09 09:44:25;;;;;;;5.72;3.53;;;;;;;25.36;54.56;98727.00;4431291;32;33810;-64
2022/06/09 09:46:58;;;;;;;8.60;4.25;;;;;;;25.13;53.62;98725.88;4443306;32;33803;-64
2022/06/09 09:49:41;;;;;;;7.55;4.65;;;;;;;25.20;55.77;98723.91;4439779;32;34315;-64
2022/06/09 09:52:30;;;;;;;6.47;4.47;;;;;;;25.20;54.32;98721.16;4456113;32;33700;-64
2022/06/09 09:54:58;;;;;;;5.97;3.85;;;;;;;25.29;53.43;98727.09;4440134;32;34516;-64
2022/06/09 09:57:28;;;;;;;7.93;4.43;;;;;;;25.12;54.84;98723.34;4440847;32;32352;-64
2022/06/09 09:59:58;;;;;;;5.70;3.70;;;;;;;25.51;53.71;98732.88;4442426;32;31851;-64
2022/06/09 10:08:41;;;;;;;6.03;4.32;;;;;;;26.06;50.47;98713.34;4439927;32;34579;-64
2022/06/09 10:14:32;;;;;;;6.70;4.40;;;;;;;27.05;49.17;98693.97;4443290;32;33623;-64
2022/06/09 10:17:00;;;;;;;7.37;5.10;;;;;;;26.77;49.70;98694.00;4440660;32;32883;-64
2022/06/09 10:19:50;;;;;;;8.80;5.35;;;;;;;26.42;49.08;98693.03;4439026;32;33083;-63
2022/06/09 10:22:22;;;;;;;6.75;4.60;;;;;;;26.55;49.70;98697.44;4438149;32;34372;-64
2022/06/09 10:25:27;;;;;;;7.62;5.20;;;;;;;26.90;48.12;98697.28;4444794;32;34964;-64
2022/06/09 10:28:00;;;;;;;9.20;5.53;;;;;;;26.75;48.33;98698.91;4438519;32;35124;-64
2022/06/09 10:30:35;;;;;;;9.95;6.55;;;;;;;26.74;48.46;98697.22;4440196;32;33761;-64
2022/06/09 10:33:11;;;;;;;9.80;5.07;;;;;;;26.41;49.41;98699.56;4417832;32;32775;-64
2022/06/09 10:35:46;;;;;;;7.12;5.30;;;;;;;25.89;51.04;98701.47;4437632;32;32574;-64
2022/06/09 10:38:25;;;;;;;8.10;4.78;;;;;;;26.24;49.37;98696.75;4437617;32;34191;-64
2022/06/09 10:40:56;;;;;;;7.40;5.12;;;;;;;26.35;49.90;98699.72;4443669;32;34632;-65
2022/06/09 10:43:42;;;;;;;9.68;5.30;;;;;;;26.34;50.37;98693.41;4440607;32;32699;-64
2022/06/09 10:46:22;;;;;;;8.90;6.07;;;;;;;26.57;48.25;98692.53;4440274;32;33810;-64
2022/06/09 10:55:15;;;;;;;9.15;6.65;;;;;;;25.86;50.06;98669.88;4433289;32;33678;-63
2022/06/09 10:57:45;;;;;;;8.07;5.00;;;;;;;26.08;50.72;98661.88;4438262;32;32543;-63
2022/06/09 11:00:18;;;;;;;8.38;5.70;;;;;;;26.45;50.45;98659.63;4437913;32;33001;-63
2022/06/09 11:02:49;;;;;;;8.80;6.00;;;;;;;26.43;48.97;98664.50;4441375;32;34952;-65
2022/06/09 11:05:21;;;;;;;8.02;5.75;;;;;;;26.69;49.44;98665.03;4441240;32;34313;-63
2022/06/09 11:08:00;;;;;;;8.68;5.45;;;;;;;26.67;49.99;98668.00;4438496;32;33953;-63
2022/06/09 11:10:56;;;;;;;8.30;5.93;;;;;;;27.25;47.01;98660.56;4438789;32;35493;-64
2022/06/09 11:13:51;;;;;;;7.28;5.25;;;;;;;27.68;45.97;98667.31;4443254;32;33370;-64
2022/06/09 11:16:31;;;;;;;9.55;5.85;;;;;;;27.28;46.59;98659.25;4441648;32;33539;-64
2022/06/09 11:19:24;;;;;;;10.52;4.87;;;;;;;27.76;45.27;98660.53;4426580;32;32266;-70
2022/06/09 11:22:01;;;;;;;6.68;5.07;;;;;;;27.67;44.52;98653.78;4446173;32;32708;-65
2022/06/09 11:24:33;;;;;;;7.03;5.22;;;;;;;27.87;44.34;98652.22;4450122;32;34934;-65
2022/06/09 11:27:22;;;;;;;9.05;5.75;;;;;;;27.76;45.51;98644.03;4448642;32;32216;-64
2022/06/09 11:30:02;;;;;;;11.57;6.25;;;;;;;27.58;45.79;98635.00;4448194;32;35109;-63
2022/06/09 11:32:38;;;;;;;7.12;5.28;;;;;;;27.32;45.99;98628.28;4445847;32;33821;-64
2022/06/09 11:35:09;;;;;;;7.55;4.72;;;;;;;27.12;45.95;98623.25;4448218;32;32238;-63
2022/06/09 11:37:57;;;;;;;9.07;5.68;;;;;;;27.30;46.10;98626.88;4446732;32;33246;-64
2022/06/09 11:40:50;;;;;;;7.32;5.18;;;;;;;27.14;46.63;98625.78;4443861;32;34864;-63
2022/06/09 11:43:37;;;;;;;7.28;4.75;;;;;;;26.93;47.03;98627.31;4438697;32;32733;-64
2022/06/09 11:46:15;;;;;;;10.05;5.57;;;;;;;26.71;48.37;98630.78;4441453;32;33379;-64
2022/06/09 11:48:47;;;;;;;9.25;5.53;;;;;;;26.64;49.21;98616.38;4445103;32;33522;-63
2022/06/09 11:51:21;;;;;;;9.05;6.28;;;;;;;25.65;52.00;98615.66;4443191;32;32772;-63
2022/06/09 11:54:02;;;;;;;8.27;5.82;;;;;;;25.87;53.07;98611.25;4446140;32;35011;-63
2022/06/09 11:56:33;;;;;;;12.20;7.78;;;;;;;24.99;56.39;98614.87;4446203;32;33701;-64
2022/06/09 11:59:15;;;;;;;9.10;3.97;;;;;;;23.90;61.35;98617.62;4448903;32;33338;-64
2022/06/09 12:02:08;;;;;;;8.70;4.28;;;;;;;23.24;56.02;98663.66;4442914;32;33707;-67
2022/06/09 12:04:53;;;;;;;11.40;5.00;;;;;;;22.54;61.27;98731.84;4441866;32;32896;-66
2022/06/09 12:07:47;;;;;;;10.43;3.08;;;;;;;22.08;64.30;98783.72;4444988;32;32892;-65
2022/06/09 12:10:33;;;;;;;5.62;2.70;;;;;;;22.32;61.93;98774.09;4417627;32;31967;-67
2022/06/09 12:13:12;;;;;;;8.65;2.90;;;;;;;21.58;60.27;98728.91;4439166;32;33947;-68
2022/06/09 12:15:53;;;;;;;6.95;1.80;;;;;;;21.66;63.31;98697.91;4446942;32;34034;-66